createdAt,value
2022-10-05T00:01:02.578Z,97603.56
2022-10-05T00:03:37.060Z,97604.28
2022-10-05T00:06:06.019Z,97598.16
2022-10-05T00:08:35.948Z,97593.47
2022-10-05T00:11:04.174Z,97595.19
2022-10-05T00:13:32.804Z,97598.16
2022-10-05T00:16:13.871Z,97599.25
2022-10-05T00:18:47.695Z,97603.38
2022-10-05T00:21:23.434Z,97610.25
2022-10-05T00:23:52.816Z,97609.41
2022-10-05T00:26:23.633Z,97608.13
2022-10-05T00:28:52.961Z,97607.50
2022-10-05T00:31:23.729Z,97608.41
2022-10-05T00:33:54.957Z,97598.03
2022-10-05T00:36:23.351Z,97586.59
2022-10-05T00:38:51.671Z,97594.25
2022-10-05T00:41:38.852Z,97596.13
2022-10-05T00:44:29.451Z,97579.84
2022-10-05T00:47:08.079Z,97582.38
2022-10-05T00:50:07.087Z,97580.41
2022-10-05T00:52:49.999Z,97587.88
2022-10-05T00:55:31.407Z,97577.69
2022-10-05T00:58:13.708Z,97580.28
2022-10-05T01:01:01.820Z,97581.75
2022-10-05T01:03:43.875Z,97585.00
2022-10-05T01:06:24.269Z,97581.69
2022-10-05T01:09:04.140Z,97579.50
2022-10-05T01:11:44.476Z,97588.06
2022-10-05T01:14:23.435Z,97584.44
2022-10-05T01:16:59.223Z,97583.34
2022-10-05T01:19:52.936Z,97580.94
2022-10-05T01:22:46.087Z,97576.66
2022-10-05T01:25:27.418Z,97567.06
2022-10-05T01:28:15.263Z,97573.06
2022-10-05T01:31:08.800Z,97566.88
2022-10-05T01:33:53.630Z,97574.91
2022-10-05T01:36:29.865Z,97565.34
2022-10-05T01:39:08.405Z,97557.81
2022-10-05T01:41:58.466Z,97555.41
2022-10-05T01:44:32.740Z,97549.66
2022-10-05T01:47:08.406Z,97544.06
2022-10-05T01:49:39.779Z,97547.28
2022-10-05T01:52:24.416Z,97546.50
2022-10-05T01:55:17.069Z,97548.53
2022-10-05T01:58:04.564Z,97555.09
2022-10-05T02:00:44.236Z,97555.78
2022-10-05T02:03:20.108Z,97548.00
2022-10-05T02:05:53.989Z,97544.16
2022-10-05T02:08:28.860Z,97546.41
2022-10-05T02:11:03.336Z,97557.47
2022-10-05T02:13:41.276Z,97554.81
2022-10-05T02:16:17.669Z,97544.75
2022-10-05T02:18:52.851Z,97545.81
2022-10-05T02:21:37.181Z,97552.16
2022-10-05T02:24:20.146Z,97547.75
2022-10-05T02:26:49.861Z,97546.59
2022-10-05T02:29:34.783Z,97548.03
2022-10-05T02:32:09.108Z,97547.31
2022-10-05T02:34:40.605Z,97553.69
2022-10-05T02:37:23.581Z,97553.81
2022-10-05T02:40:15.855Z,97559.94
2022-10-05T02:42:58.508Z,97554.16
2022-10-05T02:45:39.532Z,97550.19
2022-10-05T02:48:16.729Z,97539.06
2022-10-05T02:50:54.895Z,97543.97
2022-10-05T02:53:30.458Z,97545.09
2022-10-05T02:56:14.625Z,97538.25
2022-10-05T02:58:54.523Z,97530.75
2022-10-05T03:01:32.446Z,97533.31
2022-10-05T03:04:14.970Z,97526.91
2022-10-05T03:06:55.811Z,97529.22
2022-10-05T03:09:32.994Z,97521.63
2022-10-05T03:12:13.990Z,97524.88
2022-10-05T03:14:52.797Z,97531.69
2022-10-05T03:17:32.296Z,97534.28
2022-10-05T03:20:21.547Z,97521.06
2022-10-05T03:22:52.486Z,97525.50
2022-10-05T03:26:03.973Z,97517.50
2022-10-05T03:28:43.690Z,97521.28
2022-10-05T03:31:20.835Z,97518.41
2022-10-05T03:34:01.684Z,97520.72
2022-10-05T03:36:39.752Z,97523.09
2022-10-05T03:39:16.152Z,97512.72
2022-10-05T03:41:49.068Z,97523.47
2022-10-05T03:44:36.487Z,97526.44
2022-10-05T03:47:16.103Z,97532.03
2022-10-05T03:50:00.061Z,97527.28
2022-10-05T03:52:38.246Z,97519.22
2022-10-05T03:55:19.800Z,97530.41
2022-10-05T03:57:51.205Z,97526.00
2022-10-05T04:00:30.496Z,97521.84
2022-10-05T04:03:06.240Z,97529.03
2022-10-05T04:05:43.255Z,97524.72
2022-10-05T04:08:22.003Z,97519.72
2022-10-05T04:10:53.128Z,97526.97
2022-10-05T04:13:27.476Z,97528.31
2022-10-05T04:16:02.060Z,97523.13
2022-10-05T04:18:35.987Z,97528.31
2022-10-05T04:21:11.762Z,97526.63
2022-10-05T04:23:56.766Z,97515.16
2022-10-05T04:26:33.338Z,97525.75
2022-10-05T04:29:12.071Z,97525.47
2022-10-05T04:32:03.587Z,97522.50
2022-10-05T04:35:02.720Z,97529.28
2022-10-05T04:37:46.731Z,97533.41
2022-10-05T04:40:36.621Z,97531.44
2022-10-05T04:43:13.518Z,97530.66
2022-10-05T04:46:06.588Z,97531.84
2022-10-05T04:49:05.021Z,97539.94
2022-10-05T04:51:46.578Z,97544.06
2022-10-05T04:54:27.588Z,97553.91
2022-10-05T04:57:01.611Z,97549.66
2022-10-05T05:00:03.114Z,97551.97
2022-10-05T05:02:49.293Z,97552.19
2022-10-05T05:05:28.988Z,97546.59
2022-10-05T05:08:10.019Z,97543.97
2022-10-05T05:11:22.323Z,97557.63
2022-10-05T05:14:14.248Z,97559.75
2022-10-05T05:16:46.413Z,97548.53
2022-10-05T05:19:34.793Z,97543.91
2022-10-05T05:22:18.340Z,97545.16
2022-10-05T05:25:04.355Z,97545.75
2022-10-05T05:27:42.442Z,97531.31
2022-10-05T05:30:22.255Z,97535.06
2022-10-05T05:33:09.276Z,97540.50
2022-10-05T05:36:19.513Z,97539.81
2022-10-05T05:39:03.869Z,97542.03
2022-10-05T05:41:39.108Z,97547.53
2022-10-05T05:44:20.824Z,97538.84
2022-10-05T05:47:03.950Z,97555.88
2022-10-05T05:49:56.066Z,97546.28
2022-10-05T05:52:31.508Z,97545.25
2022-10-05T05:55:06.451Z,97551.84
2022-10-05T05:57:44.013Z,97550.34
2022-10-05T06:00:22.675Z,97559.06
2022-10-05T06:02:59.652Z,97555.84
2022-10-05T06:05:33.515Z,97560.59
2022-10-05T06:08:11.996Z,97557.25
2022-10-05T06:10:44.756Z,97557.56
2022-10-05T06:13:20.436Z,97560.00
2022-10-05T06:15:54.290Z,97557.69
2022-10-05T06:18:24.778Z,97569.53
2022-10-05T06:21:01.112Z,97567.13
2022-10-05T06:23:36.912Z,97571.69
2022-10-05T06:26:39.561Z,97573.53
2022-10-05T06:29:22.068Z,97573.56
2022-10-05T06:32:06.241Z,97565.03
2022-10-05T06:34:58.205Z,97568.53
2022-10-05T06:37:45.626Z,97579.97
2022-10-05T06:40:31.992Z,97576.84
2022-10-05T06:43:36.196Z,97584.66
2022-10-05T06:46:11.615Z,97584.84
2022-10-05T06:48:58.513Z,97583.69
2022-10-05T06:51:37.412Z,97593.66
2022-10-05T06:54:21.309Z,97589.94
2022-10-05T06:56:57.535Z,97596.41
2022-10-05T06:59:34.326Z,97595.69
2022-10-05T07:02:10.153Z,97601.66
2022-10-05T07:05:25.772Z,97602.09
2022-10-05T07:07:59.691Z,97599.78
2022-10-05T07:10:36.597Z,97608.13
2022-10-05T07:13:27.866Z,97607.31
2022-10-05T07:16:00.926Z,97617.63
2022-10-05T07:18:50.865Z,97609.81
2022-10-05T07:21:34.504Z,97619.13
2022-10-05T07:24:22.604Z,97616.44
2022-10-05T07:26:57.719Z,97620.38
2022-10-05T07:29:33.722Z,97620.28
2022-10-05T07:32:15.572Z,97616.50
2022-10-05T07:34:58.666Z,97625.94
2022-10-05T07:37:51.893Z,97614.56
2022-10-05T07:40:29.587Z,97620.97
2022-10-05T07:43:12.714Z,97629.19
2022-10-05T07:45:49.006Z,97628.31
2022-10-05T07:48:21.996Z,97618.31
2022-10-05T07:51:02.482Z,97621.72
2022-10-05T07:53:38.547Z,97617.38
2022-10-05T07:56:16.215Z,97624.59
2022-10-05T07:58:48.332Z,97625.72
2022-10-05T08:01:20.844Z,97620.81
2022-10-05T08:03:57.793Z,97627.78
2022-10-05T08:06:45.374Z,97632.72
2022-10-05T08:09:38.497Z,97628.28
2022-10-05T08:12:22.164Z,97628.97
2022-10-05T08:14:58.315Z,97629.78
2022-10-05T08:17:42.765Z,97637.31
2022-10-05T08:20:34.301Z,97632.22
2022-10-05T08:23:13.250Z,97631.66
2022-10-05T08:25:54.686Z,97632.78
2022-10-05T08:28:29.551Z,97637.09
2022-10-05T08:31:05.498Z,97640.09
2022-10-05T08:33:46.362Z,97632.00
2022-10-05T08:36:16.926Z,97634.09
2022-10-05T08:38:45.726Z,97646.25
2022-10-05T08:42:07.976Z,97650.97
2022-10-05T08:45:23.176Z,97646.88
2022-10-05T08:48:17.258Z,97639.59
2022-10-05T08:51:39.426Z,97656.69
2022-10-05T08:54:46.971Z,97652.03
2022-10-05T08:57:46.573Z,97656.69
2022-10-05T09:00:20.721Z,97654.28
2022-10-05T09:03:29.864Z,97647.41
2022-10-05T09:06:27.814Z,97649.81
2022-10-05T09:09:36.326Z,97648.66
2022-10-05T09:12:41.477Z,97651.31
2022-10-05T09:15:44.123Z,97651.66
2022-10-05T09:19:03.501Z,97651.56
2022-10-05T09:21:43.774Z,97657.44
2022-10-05T09:24:48.522Z,97657.75
2022-10-05T09:27:19.257Z,97647.72
2022-10-05T09:30:20.231Z,97646.28
2022-10-05T09:33:33.524Z,97651.88
2022-10-05T09:36:45.051Z,97641.94
2022-10-05T09:39:36.743Z,97632.63
2022-10-05T09:42:50.040Z,97620.03
2022-10-05T09:45:45.547Z,97635.75
2022-10-05T09:48:56.333Z,97633.06
2022-10-05T09:52:00.202Z,97615.59
2022-10-05T09:55:24.022Z,97625.88
2022-10-05T09:58:36.293Z,97627.00
2022-10-05T10:01:34.483Z,97620.59
2022-10-05T10:04:25.790Z,97615.72
2022-10-05T10:07:26.440Z,97618.94
2022-10-05T10:10:38.906Z,97616.13
2022-10-05T10:13:43.302Z,97618.78
2022-10-05T10:16:26.946Z,97601.56
2022-10-05T10:19:21.375Z,97610.44
2022-10-05T10:22:39.700Z,97615.94
2022-10-05T10:26:08.670Z,97606.25
2022-10-05T10:29:13.544Z,97611.56
2022-10-05T10:32:22.212Z,97608.59
2022-10-05T10:35:22.435Z,97600.94
2022-10-05T10:38:36.467Z,97599.00
2022-10-05T10:41:47.479Z,97603.09
2022-10-05T10:45:09.284Z,97594.19
2022-10-05T10:48:01.017Z,97596.63
2022-10-05T10:51:13.877Z,97600.38
2022-10-05T10:54:20.389Z,97593.22
2022-10-05T10:57:19.208Z,97604.75
2022-10-05T11:00:32.580Z,97587.38
2022-10-05T11:03:42.995Z,97585.50
2022-10-05T11:06:28.102Z,97581.25
2022-10-05T11:09:31.003Z,97571.63
2022-10-05T11:13:20.218Z,97568.03
2022-10-05T11:16:30.468Z,97561.75
2022-10-05T11:19:35.044Z,97565.78
2022-10-05T11:22:37.693Z,97553.31
2022-10-05T11:25:32.124Z,97563.34
2022-10-05T11:28:29.301Z,97554.91
2022-10-05T11:31:32.194Z,97547.63
2022-10-05T11:34:38.958Z,97551.88
2022-10-05T11:37:48.002Z,97547.59
2022-10-05T11:41:03.331Z,97539.63
2022-10-05T11:44:07.141Z,97533.03
2022-10-05T11:46:44.583Z,97531.22
2022-10-05T11:49:28.352Z,97535.78
2022-10-05T11:52:10.107Z,97521.44
2022-10-05T11:55:10.816Z,97519.09
2022-10-05T11:57:52.216Z,97516.94
2022-10-05T12:00:23.184Z,97512.47
2022-10-05T12:03:38.747Z,97508.09
2022-10-05T12:06:23.461Z,97514.50
2022-10-05T12:09:05.905Z,97511.31
2022-10-05T12:11:57.695Z,97506.63
2022-10-05T12:14:39.402Z,97506.69
2022-10-05T12:17:19.405Z,97501.09
2022-10-05T12:19:55.598Z,97489.75
2022-10-05T12:22:30.610Z,97494.84
2022-10-05T12:25:22.824Z,97484.91
2022-10-05T12:27:55.598Z,97490.97
2022-10-05T12:30:36.392Z,97486.88
2022-10-05T12:33:15.310Z,97487.66
2022-10-05T12:35:49.714Z,97483.25
2022-10-05T12:38:29.625Z,97477.09
2022-10-05T12:41:10.991Z,97474.47
2022-10-05T12:43:54.581Z,97469.88
2022-10-05T12:46:35.639Z,97475.63
2022-10-05T12:49:34.990Z,97470.06
2022-10-05T12:52:06.761Z,97461.00
2022-10-05T12:54:47.662Z,97459.94
2022-10-05T12:57:27.066Z,97461.72
2022-10-05T13:00:05.247Z,97462.44
2022-10-05T13:02:43.199Z,97459.63
2022-10-05T13:05:29.247Z,97456.81
2022-10-05T13:08:17.843Z,97459.78
2022-10-05T13:10:51.074Z,97455.06
2022-10-05T13:13:47.916Z,97460.91
2022-10-05T13:16:31.122Z,97453.09
2022-10-05T13:19:24.031Z,97458.19
2022-10-05T13:22:17.245Z,97455.88
2022-10-05T13:24:59.347Z,97455.88
2022-10-05T13:27:33.431Z,97450.31
2022-10-05T13:30:08.454Z,97447.47
2022-10-05T13:32:43.198Z,97447.47
2022-10-05T13:35:40.348Z,97438.03
2022-10-05T13:38:25.270Z,97439.91
2022-10-05T13:41:05.944Z,97431.97
2022-10-05T13:43:41.397Z,97439.00
2022-10-05T13:46:19.796Z,97438.06
2022-10-05T13:49:06.150Z,97433.16
2022-10-05T13:51:46.881Z,97432.72
2022-10-05T13:54:20.494Z,97431.16
2022-10-05T13:56:55.906Z,97428.38
2022-10-05T13:59:31.765Z,97437.88
2022-10-05T14:02:07.057Z,97434.19
2022-10-05T14:04:48.636Z,97432.81
2022-10-05T14:07:34.382Z,97430.31
2022-10-05T14:10:04.635Z,97435.69
2022-10-05T14:12:41.864Z,97432.94
2022-10-05T14:15:24.350Z,97424.94
2022-10-05T14:17:52.808Z,97417.53
2022-10-05T14:20:28.015Z,97436.88
2022-10-05T14:23:01.908Z,97418.97
2022-10-05T14:25:31.670Z,97421.66
2022-10-05T14:28:04.926Z,97418.81
2022-10-05T14:30:35.097Z,97420.50
2022-10-05T14:33:17.510Z,97421.97
2022-10-05T14:35:50.552Z,97422.63
2022-10-05T14:38:23.037Z,97429.28
2022-10-05T14:41:18.940Z,97418.31
2022-10-05T14:43:56.947Z,97426.28
2022-10-05T14:46:29.134Z,97417.25
2022-10-05T14:49:17.127Z,97418.97
2022-10-05T14:51:46.833Z,97411.25
2022-10-05T14:54:28.606Z,97413.22
2022-10-05T14:57:07.950Z,97416.03
2022-10-05T15:00:12.583Z,97414.25
2022-10-05T15:03:07.111Z,97409.69
2022-10-05T15:05:40.962Z,97411.00
2022-10-05T15:08:28.155Z,97411.53
2022-10-05T15:11:04.728Z,97412.88
2022-10-05T15:13:39.020Z,97410.66
2022-10-05T15:16:19.929Z,97416.00
2022-10-05T15:18:58.230Z,97416.25
2022-10-05T15:21:45.068Z,97418.06
2022-10-05T15:24:20.957Z,97406.28
2022-10-05T15:26:52.049Z,97416.47
2022-10-05T15:29:52.220Z,97418.81
2022-10-05T15:32:38.083Z,97413.03
2022-10-05T15:35:36.830Z,97405.50
2022-10-05T15:38:21.079Z,97411.66
2022-10-05T15:41:10.042Z,97404.25
2022-10-05T15:44:06.141Z,97410.44
2022-10-05T15:46:41.495Z,97410.78
2022-10-05T15:49:29.006Z,97418.75
2022-10-05T15:52:07.225Z,97403.41
2022-10-05T15:55:10.779Z,97408.88
2022-10-05T15:57:52.128Z,97412.59
2022-10-05T16:00:23.208Z,97414.47
2022-10-05T16:03:02.333Z,97406.97
2022-10-05T16:06:19.707Z,97408.69
2022-10-05T16:09:11.820Z,97414.28
2022-10-05T16:12:00.374Z,97412.66
2022-10-05T16:14:55.004Z,97409.97
2022-10-05T16:17:37.949Z,97408.59
2022-10-05T16:20:23.171Z,97412.66
2022-10-05T16:22:59.710Z,97424.06
2022-10-05T16:25:46.273Z,97422.97
2022-10-05T16:28:29.966Z,97420.97
2022-10-05T16:31:09.766Z,97421.78
2022-10-05T16:33:54.827Z,97426.88
2022-10-05T16:36:37.408Z,97421.84
2022-10-05T16:39:16.836Z,97441.16
2022-10-05T16:41:56.590Z,97446.06
2022-10-05T16:44:40.494Z,97443.22
2022-10-05T16:47:36.109Z,97451.41
2022-10-05T16:50:20.895Z,97449.56
2022-10-05T16:52:57.215Z,97453.69
2022-10-05T16:55:36.452Z,97457.22
2022-10-05T16:58:15.922Z,97464.66
2022-10-05T17:01:02.115Z,97473.22
2022-10-05T17:03:50.842Z,97475.88
2022-10-05T17:06:45.978Z,97478.59
2022-10-05T17:09:52.303Z,97474.66
2022-10-05T17:12:47.047Z,97474.78
2022-10-05T17:15:37.281Z,97486.94
2022-10-05T17:18:25.001Z,97485.56
2022-10-05T17:21:05.488Z,97501.41
2022-10-05T17:23:53.518Z,97503.50
2022-10-05T17:26:53.442Z,97518.41
2022-10-05T17:29:30.404Z,97506.59
2022-10-05T17:32:11.197Z,97504.91
2022-10-05T17:34:41.461Z,97509.91
2022-10-05T17:37:36.601Z,97519.59
2022-10-05T17:40:34.390Z,97514.19
2022-10-05T17:43:24.102Z,97514.28
2022-10-05T17:46:02.115Z,97526.69
2022-10-05T17:49:17.779Z,97536.72
2022-10-05T17:52:22.772Z,97528.41
2022-10-05T17:55:30.121Z,97538.56
2022-10-05T17:58:02.647Z,97524.34
2022-10-05T18:00:57.174Z,97540.59
2022-10-05T18:03:42.848Z,97545.66
2022-10-05T18:06:43.399Z,97534.81
2022-10-05T18:09:44.359Z,97542.53
2022-10-05T18:12:48.330Z,97548.63
2022-10-05T18:15:48.782Z,97551.41
2022-10-05T18:18:59.247Z,97548.53
2022-10-05T18:21:39.676Z,97547.81
2022-10-05T18:24:46.089Z,97558.00
2022-10-05T18:27:54.265Z,97567.09
2022-10-05T18:30:25.367Z,97567.41
2022-10-05T18:33:47.643Z,97580.72
2022-10-05T18:36:36.898Z,97569.63
2022-10-05T18:39:18.812Z,97576.09
2022-10-05T18:42:00.879Z,97580.97
2022-10-05T18:44:40.745Z,97590.06
2022-10-05T18:47:19.616Z,97588.78
2022-10-05T18:50:17.591Z,97587.84
2022-10-05T18:53:09.289Z,97588.84
2022-10-05T18:55:44.821Z,97591.25
2022-10-05T18:58:20.352Z,97598.94
2022-10-05T19:01:33.912Z,97607.75
2022-10-05T19:04:17.527Z,97608.31
2022-10-05T19:06:58.448Z,97600.50
2022-10-05T19:10:06.046Z,97623.19
2022-10-05T19:12:51.516Z,97617.16
2022-10-05T19:15:27.815Z,97621.59
2022-10-05T19:18:34.554Z,97613.31
2022-10-05T19:21:20.743Z,97618.56
2022-10-05T19:24:06.921Z,97619.28
2022-10-05T19:26:53.887Z,97619.16
2022-10-05T19:29:37.870Z,97620.44
2022-10-05T19:32:18.445Z,97613.38
2022-10-05T19:35:07.331Z,97620.97
2022-10-05T19:37:47.630Z,97628.56
2022-10-05T19:40:24.499Z,97624.53
2022-10-05T19:43:21.045Z,97619.16
2022-10-05T19:46:04.253Z,97637.16
2022-10-05T19:48:43.164Z,97632.91
2022-10-05T19:51:27.642Z,97633.09
2022-10-05T19:53:58.768Z,97642.84
2022-10-05T19:56:31.360Z,97652.97
2022-10-05T19:59:13.230Z,97657.41
2022-10-05T20:01:45.819Z,97656.63
2022-10-05T20:04:16.383Z,97653.09
2022-10-05T20:06:47.968Z,97657.78
2022-10-05T20:09:25.336Z,97663.84
2022-10-05T20:11:54.891Z,97656.63
2022-10-05T20:14:31.897Z,97663.63
2022-10-05T20:17:35.802Z,97667.53
2022-10-05T20:20:25.350Z,97676.22
2022-10-05T20:23:22.123Z,97692.44
2022-10-05T20:26:04.579Z,97689.06
2022-10-05T20:28:33.566Z,97701.44
2022-10-05T20:31:02.382Z,97705.28
2022-10-05T20:33:31.084Z,97703.22
2022-10-05T20:36:03.705Z,97712.97
2022-10-05T20:38:40.029Z,97720.06
2022-10-05T20:41:11.305Z,97721.03
2022-10-05T20:43:40.477Z,97724.88
2022-10-05T20:46:08.900Z,97729.03
2022-10-05T20:48:37.279Z,97728.13
2022-10-05T20:51:06.107Z,97735.16
2022-10-05T20:53:35.998Z,97738.28
2022-10-05T20:56:04.728Z,97731.69
2022-10-05T20:58:33.053Z,97739.97
2022-10-05T21:01:19.954Z,97742.09
2022-10-05T21:03:49.802Z,97760.50
2022-10-05T21:06:21.020Z,97763.16
2022-10-05T21:08:51.476Z,97762.66
2022-10-05T21:11:19.934Z,97759.97
2022-10-05T21:13:49.402Z,97774.13
2022-10-05T21:16:19.769Z,97771.50
2022-10-05T21:18:50.423Z,97773.53
2022-10-05T21:21:19.741Z,97766.22
2022-10-05T21:23:51.240Z,97779.97
2022-10-05T21:26:21.826Z,97775.84
2022-10-05T21:28:51.832Z,97777.19
2022-10-05T21:31:20.356Z,97772.97
2022-10-05T21:33:48.794Z,97779.81
2022-10-05T21:36:21.116Z,97781.66
2022-10-05T21:38:55.765Z,97789.63
2022-10-05T21:41:25.702Z,97800.09
2022-10-05T21:43:55.132Z,97797.34
2022-10-05T21:46:26.969Z,97797.09
2022-10-05T21:48:56.020Z,97799.59
2022-10-05T21:51:26.906Z,97795.91
2022-10-05T21:54:01.725Z,97811.81
2022-10-05T21:56:34.799Z,97812.34
2022-10-05T21:59:04.920Z,97813.22
2022-10-05T22:01:35.994Z,97808.69
2022-10-05T22:04:04.695Z,97817.22
2022-10-05T22:06:35.240Z,97822.34
2022-10-05T22:09:06.419Z,97804.53
2022-10-05T22:11:35.336Z,97817.19
2022-10-05T22:14:03.771Z,97819.13
2022-10-05T22:16:35.278Z,97819.25
2022-10-05T22:19:15.935Z,97824.16
2022-10-05T22:21:45.876Z,97814.16
2022-10-05T22:24:16.227Z,97817.34
2022-10-05T22:26:48.246Z,97818.56
2022-10-05T22:29:17.539Z,97827.28
2022-10-05T22:31:48.753Z,97826.19
2022-10-05T22:34:18.232Z,97831.16
2022-10-05T22:36:49.364Z,97832.00
2022-10-05T22:39:19.427Z,97832.50
2022-10-05T22:41:48.918Z,97836.44
2022-10-05T22:44:17.549Z,97838.88
2022-10-05T22:46:46.111Z,97838.56
2022-10-05T22:49:14.766Z,97832.19
2022-10-05T22:51:43.923Z,97830.00
2022-10-05T22:54:12.672Z,97844.78
2022-10-05T22:56:42.365Z,97852.34
2022-10-05T22:59:10.924Z,97844.31
2022-10-05T23:01:39.451Z,97845.81
2022-10-05T23:04:09.002Z,97842.84
2022-10-05T23:06:37.300Z,97845.81
2022-10-05T23:09:06.420Z,97852.53
2022-10-05T23:11:34.825Z,97855.97
2022-10-05T23:14:04.720Z,97860.94
2022-10-05T23:16:33.117Z,97859.75
2022-10-05T23:19:01.865Z,97854.63
2022-10-05T23:21:31.724Z,97862.88
2022-10-05T23:24:00.143Z,97858.78
2022-10-05T23:26:29.104Z,97865.00
2022-10-05T23:28:57.511Z,97866.47
2022-10-05T23:31:31.121Z,97856.81
2022-10-05T23:33:59.972Z,97863.72
2022-10-05T23:36:32.359Z,97867.59
2022-10-05T23:39:02.906Z,97857.94
2022-10-05T23:41:31.193Z,97862.63
2022-10-05T23:43:59.669Z,97871.25
2022-10-05T23:46:32.576Z,97871.06
2022-10-05T23:49:00.893Z,97868.72
2022-10-05T23:51:29.223Z,97874.84
2022-10-05T23:53:57.642Z,97873.41
2022-10-05T23:56:26.592Z,97873.84
2022-10-05T23:58:55.300Z,97882.41
